sensor_id;sensor_type;location;lat;lon;timestamp;P1;durP1;ratioP1;P2;durP2;ratioP2
68923;SDS011;55961;52.156;20.942;2023-09-19T00:01:08;15.32;;;10.80;;
68923;SDS011;55961;52.156;20.942;2023-09-19T00:03:39;16.58;;;11.45;;
68923;SDS011;55961;52.156;20.942;2023-09-19T00:06:07;15.15;;;10.70;;
68923;SDS011;55961;52.156;20.942;2023-09-19T00:08:35;15.50;;;10.00;;
68923;SDS011;55961;52.156;20.942;2023-09-19T00:11:01;19.08;;;11.27;;
68923;SDS011;55961;52.156;20.942;2023-09-19T00:13:34;16.48;;;10.45;;
68923;SDS011;55961;52.156;20.942;2023-09-19T00:16:01;19.52;;;11.15;;
68923;SDS011;55961;52.156;20.942;2023-09-19T00:18:34;21.08;;;11.02;;
68923;SDS011;55961;52.156;20.942;2023-09-19T00:21:01;18.00;;;11.20;;
68923;SDS011;55961;52.156;20.942;2023-09-19T00:23:29;16.75;;;10.88;;
68923;SDS011;55961;52.156;20.942;2023-09-19T00:26:00;17.58;;;10.95;;
68923;SDS011;55961;52.156;20.942;2023-09-19T00:28:26;17.90;;;11.57;;
68923;SDS011;55961;52.156;20.942;2023-09-19T00:30:52;16.98;;;10.90;;
68923;SDS011;55961;52.156;20.942;2023-09-19T00:33:20;15.23;;;10.53;;
68923;SDS011;55961;52.156;20.942;2023-09-19T00:35:50;18.70;;;11.10;;
68923;SDS011;55961;52.156;20.942;2023-09-19T00:38:18;18.98;;;10.73;;
68923;SDS011;55961;52.156;20.942;2023-09-19T00:40:47;18.88;;;10.88;;
68923;SDS011;55961;52.156;20.942;2023-09-19T00:43:14;18.25;;;11.10;;
68923;SDS011;55961;52.156;20.942;2023-09-19T00:45:44;15.77;;;10.80;;
68923;SDS011;55961;52.156;20.942;2023-09-19T00:48:13;18.23;;;11.82;;
68923;SDS011;55961;52.156;20.942;2023-09-19T00:50:41;17.35;;;11.48;;
68923;SDS011;55961;52.156;20.942;2023-09-19T00:53:09;18.58;;;11.77;;
68923;SDS011;55961;52.156;20.942;2023-09-19T00:55:38;19.17;;;10.60;;
68923;SDS011;55961;52.156;20.942;2023-09-19T00:58:07;17.60;;;11.27;;
68923;SDS011;55961;52.156;20.942;2023-09-19T01:00:35;17.73;;;11.18;;
68923;SDS011;55961;52.156;20.942;2023-09-19T01:03:02;17.90;;;11.13;;
68923;SDS011;55961;52.156;20.942;2023-09-19T01:05:29;16.05;;;10.80;;
68923;SDS011;55961;52.156;20.942;2023-09-19T01:07:55;17.38;;;11.63;;
68923;SDS011;55961;52.156;20.942;2023-09-19T01:10:21;17.03;;;11.13;;
68923;SDS011;55961;52.156;20.942;2023-09-19T01:26:28;17.88;;;11.40;;
68923;SDS011;55961;52.156;20.942;2023-09-19T01:29:12;16.73;;;10.82;;
68923;SDS011;55961;52.156;20.942;2023-09-19T01:31:45;16.60;;;11.05;;
68923;SDS011;55961;52.156;20.942;2023-09-19T01:34:12;19.02;;;10.93;;
68923;SDS011;55961;52.156;20.942;2023-09-19T01:36:38;16.67;;;10.83;;
68923;SDS011;55961;52.156;20.942;2023-09-19T01:39:05;17.40;;;11.13;;
68923;SDS011;55961;52.156;20.942;2023-09-19T01:41:38;16.80;;;11.50;;
68923;SDS011;55961;52.156;20.942;2023-09-19T01:44:20;15.38;;;11.52;;
68923;SDS011;55961;52.156;20.942;2023-09-19T01:46:51;17.60;;;12.00;;
68923;SDS011;55961;52.156;20.942;2023-09-19T01:49:31;15.85;;;10.85;;
68923;SDS011;55961;52.156;20.942;2023-09-19T01:52:11;16.17;;;10.70;;
68923;SDS011;55961;52.156;20.942;2023-09-19T01:54:51;16.30;;;11.20;;
68923;SDS011;55961;52.156;20.942;2023-09-19T01:59:56;16.27;;;11.97;;
68923;SDS011;55961;52.156;20.942;2023-09-19T02:02:37;18.75;;;11.43;;
68923;SDS011;55961;52.156;20.942;2023-09-19T02:05:05;17.35;;;11.18;;
68923;SDS011;55961;52.156;20.942;2023-09-19T02:07:31;21.88;;;11.70;;
68923;SDS011;55961;52.156;20.942;2023-09-19T02:09:58;16.85;;;11.80;;
68923;SDS011;55961;52.156;20.942;2023-09-19T02:12:26;14.80;;;10.57;;
68923;SDS011;55961;52.156;20.942;2023-09-19T02:14:52;17.92;;;11.38;;
68923;SDS011;55961;52.156;20.942;2023-09-19T02:17:18;17.75;;;11.80;;
68923;SDS011;55961;52.156;20.942;2023-09-19T02:19:44;16.95;;;11.82;;
68923;SDS011;55961;52.156;20.942;2023-09-19T02:22:10;20.20;;;12.00;;
68923;SDS011;55961;52.156;20.942;2023-09-19T02:24:37;18.15;;;10.98;;
68923;SDS011;55961;52.156;20.942;2023-09-19T02:27:04;16.55;;;10.82;;
68923;SDS011;55961;52.156;20.942;2023-09-19T02:29:30;18.95;;;11.80;;
68923;SDS011;55961;52.156;20.942;2023-09-19T02:31:57;15.77;;;11.40;;
68923;SDS011;55961;52.156;20.942;2023-09-19T02:34:23;19.25;;;11.93;;
68923;SDS011;55961;52.156;20.942;2023-09-19T02:36:51;18.60;;;11.77;;
68923;SDS011;55961;52.156;20.942;2023-09-19T02:39:19;16.90;;;11.93;;
68923;SDS011;55961;52.156;20.942;2023-09-19T02:41:45;18.88;;;11.63;;
68923;SDS011;55961;52.156;20.942;2023-09-19T02:44:11;19.87;;;11.37;;
68923;SDS011;55961;52.156;20.942;2023-09-19T02:46:37;15.30;;;11.15;;
68923;SDS011;55961;52.156;20.942;2023-09-19T02:49:03;19.92;;;11.50;;
68923;SDS011;55961;52.156;20.942;2023-09-19T02:51:32;17.27;;;11.48;;
68923;SDS011;55961;52.156;20.942;2023-09-19T02:53:59;17.63;;;11.67;;
68923;SDS011;55961;52.156;20.942;2023-09-19T02:56:26;18.58;;;11.82;;
68923;SDS011;55961;52.156;20.942;2023-09-19T02:58:52;18.15;;;12.73;;
68923;SDS011;55961;52.156;20.942;2023-09-19T03:01:18;18.80;;;11.80;;
68923;SDS011;55961;52.156;20.942;2023-09-19T03:03:44;18.10;;;11.38;;
68923;SDS011;55961;52.156;20.942;2023-09-19T03:06:11;19.00;;;12.67;;
68923;SDS011;55961;52.156;20.942;2023-09-19T03:08:38;19.65;;;13.13;;
68923;SDS011;55961;52.156;20.942;2023-09-19T03:11:05;19.27;;;11.85;;
68923;SDS011;55961;52.156;20.942;2023-09-19T03:13:33;22.75;;;11.85;;
68923;SDS011;55961;52.156;20.942;2023-09-19T03:16:01;16.67;;;11.38;;
68923;SDS011;55961;52.156;20.942;2023-09-19T03:18:30;16.17;;;11.10;;
68923;SDS011;55961;52.156;20.942;2023-09-19T03:20:57;18.45;;;12.18;;
68923;SDS011;55961;52.156;20.942;2023-09-19T03:23:26;17.67;;;11.80;;
68923;SDS011;55961;52.156;20.942;2023-09-19T03:25:53;19.35;;;11.73;;
68923;SDS011;55961;52.156;20.942;2023-09-19T03:28:21;18.30;;;11.35;;
68923;SDS011;55961;52.156;20.942;2023-09-19T03:30:57;18.73;;;12.87;;
68923;SDS011;55961;52.156;20.942;2023-09-19T03:33:25;19.98;;;12.00;;
68923;SDS011;55961;52.156;20.942;2023-09-19T03:35:52;17.60;;;11.55;;
68923;SDS011;55961;52.156;20.942;2023-09-19T03:38:19;17.00;;;11.98;;
68923;SDS011;55961;52.156;20.942;2023-09-19T03:40:47;16.17;;;10.98;;
68923;SDS011;55961;52.156;20.942;2023-09-19T03:43:14;17.47;;;11.53;;
68923;SDS011;55961;52.156;20.942;2023-09-19T03:45:40;19.13;;;12.20;;
68923;SDS011;55961;52.156;20.942;2023-09-19T03:48:09;18.85;;;11.90;;
68923;SDS011;55961;52.156;20.942;2023-09-19T03:50:35;17.38;;;11.25;;
68923;SDS011;55961;52.156;20.942;2023-09-19T03:53:01;21.83;;;12.57;;
68923;SDS011;55961;52.156;20.942;2023-09-19T03:55:28;19.48;;;12.80;;
68923;SDS011;55961;52.156;20.942;2023-09-19T03:57:57;18.52;;;11.73;;
68923;SDS011;55961;52.156;20.942;2023-09-19T04:00:23;17.40;;;11.43;;
68923;SDS011;55961;52.156;20.942;2023-09-19T04:02:54;17.00;;;11.55;;
68923;SDS011;55961;52.156;20.942;2023-09-19T04:05:22;15.87;;;11.37;;
68923;SDS011;55961;52.156;20.942;2023-09-19T04:07:48;19.50;;;11.93;;
68923;SDS011;55961;52.156;20.942;2023-09-19T04:10:15;17.13;;;11.38;;
68923;SDS011;55961;52.156;20.942;2023-09-19T04:13:00;19.05;;;11.38;;
68923;SDS011;55961;52.156;20.942;2023-09-19T04:15:26;16.35;;;11.05;;
68923;SDS011;55961;52.156;20.942;2023-09-19T04:17:52;17.53;;;11.63;;
68923;SDS011;55961;52.156;20.942;2023-09-19T04:20:18;18.60;;;11.57;;
68923;SDS011;55961;52.156;20.942;2023-09-19T04:22:45;19.70;;;12.43;;
68923;SDS011;55961;52.156;20.942;2023-09-19T04:25:14;18.08;;;11.60;;
68923;SDS011;55961;52.156;20.942;2023-09-19T04:27:40;19.83;;;12.40;;
68923;SDS011;55961;52.156;20.942;2023-09-19T04:30:09;19.05;;;12.55;;
68923;SDS011;55961;52.156;20.942;2023-09-19T04:32:37;18.75;;;12.25;;
68923;SDS011;55961;52.156;20.942;2023-09-19T04:35:06;18.45;;;11.75;;
68923;SDS011;55961;52.156;20.942;2023-09-19T04:37:40;19.40;;;10.97;;
68923;SDS011;55961;52.156;20.942;2023-09-19T04:40:07;18.50;;;11.80;;
68923;SDS011;55961;52.156;20.942;2023-09-19T04:42:40;16.88;;;10.95;;
68923;SDS011;55961;52.156;20.942;2023-09-19T04:45:07;17.63;;;11.38;;
68923;SDS011;55961;52.156;20.942;2023-09-19T04:47:35;18.88;;;12.48;;
68923;SDS011;55961;52.156;20.942;2023-09-19T04:50:04;18.47;;;11.83;;
68923;SDS011;55961;52.156;20.942;2023-09-19T04:52:31;17.48;;;12.05;;
68923;SDS011;55961;52.156;20.942;2023-09-19T04:54:57;20.17;;;11.80;;
68923;SDS011;55961;52.156;20.942;2023-09-19T04:57:23;17.20;;;11.95;;
68923;SDS011;55961;52.156;20.942;2023-09-19T04:59:51;18.15;;;11.68;;
68923;SDS011;55961;52.156;20.942;2023-09-19T05:02:16;17.57;;;11.60;;
68923;SDS011;55961;52.156;20.942;2023-09-19T05:04:43;19.33;;;11.05;;
68923;SDS011;55961;52.156;20.942;2023-09-19T05:07:08;18.40;;;12.38;;
68923;SDS011;55961;52.156;20.942;2023-09-19T05:09:36;20.30;;;11.93;;
68923;SDS011;55961;52.156;20.942;2023-09-19T05:12:02;19.05;;;11.70;;
68923;SDS011;55961;52.156;20.942;2023-09-19T05:14:29;22.63;;;12.43;;
68923;SDS011;55961;52.156;20.942;2023-09-19T05:16:55;16.23;;;11.48;;
68923;SDS011;55961;52.156;20.942;2023-09-19T05:19:21;20.13;;;12.15;;
68923;SDS011;55961;52.156;20.942;2023-09-19T05:21:47;18.00;;;11.57;;
68923;SDS011;55961;52.156;20.942;2023-09-19T05:24:13;21.30;;;12.65;;
68923;SDS011;55961;52.156;20.942;2023-09-19T05:26:39;23.38;;;11.43;;
68923;SDS011;55961;52.156;20.942;2023-09-19T05:29:06;20.83;;;11.45;;
68923;SDS011;55961;52.156;20.942;2023-09-19T05:31:33;18.77;;;11.53;;
68923;SDS011;55961;52.156;20.942;2023-09-19T05:34:02;19.00;;;11.15;;
68923;SDS011;55961;52.156;20.942;2023-09-19T05:36:28;18.13;;;11.48;;
68923;SDS011;55961;52.156;20.942;2023-09-19T05:38:55;17.42;;;10.93;;
68923;SDS011;55961;52.156;20.942;2023-09-19T05:41:21;18.57;;;11.27;;
68923;SDS011;55961;52.156;20.942;2023-09-19T05:43:48;16.88;;;10.20;;
68923;SDS011;55961;52.156;20.942;2023-09-19T05:46:15;15.13;;;10.70;;
68923;SDS011;55961;52.156;20.942;2023-09-19T05:48:42;17.60;;;11.18;;
68923;SDS011;55961;52.156;20.942;2023-09-19T05:51:09;20.45;;;11.48;;
68923;SDS011;55961;52.156;20.942;2023-09-19T05:53:35;21.03;;;11.13;;
68923;SDS011;55961;52.156;20.942;2023-09-19T05:56:01;17.73;;;11.48;;
68923;SDS011;55961;52.156;20.942;2023-09-19T05:58:28;20.52;;;11.70;;
68923;SDS011;55961;52.156;20.942;2023-09-19T06:00:53;18.10;;;12.48;;
68923;SDS011;55961;52.156;20.942;2023-09-19T06:03:20;23.03;;;12.80;;
68923;SDS011;55961;52.156;20.942;2023-09-19T06:05:46;22.02;;;12.80;;
68923;SDS011;55961;52.156;20.942;2023-09-19T06:08:15;20.20;;;11.63;;
68923;SDS011;55961;52.156;20.942;2023-09-19T06:10:40;18.40;;;10.07;;
68923;SDS011;55961;52.156;20.942;2023-09-19T06:13:07;17.38;;;10.13;;
68923;SDS011;55961;52.156;20.942;2023-09-19T06:15:35;17.38;;;10.38;;
68923;SDS011;55961;52.156;20.942;2023-09-19T06:18:01;16.08;;;10.35;;
68923;SDS011;55961;52.156;20.942;2023-09-19T06:20:30;18.42;;;10.32;;
68923;SDS011;55961;52.156;20.942;2023-09-19T06:22:56;17.00;;;10.70;;
68923;SDS011;55961;52.156;20.942;2023-09-19T06:25:22;15.80;;;10.85;;
68923;SDS011;55961;52.156;20.942;2023-09-19T06:27:49;17.60;;;10.82;;
68923;SDS011;55961;52.156;20.942;2023-09-19T06:30:20;16.73;;;10.00;;
68923;SDS011;55961;52.156;20.942;2023-09-19T06:32:47;13.77;;;9.55;;
68923;SDS011;55961;52.156;20.942;2023-09-19T06:35:14;19.50;;;10.33;;
68923;SDS011;55961;52.156;20.942;2023-09-19T06:37:41;27.35;;;18.48;;
68923;SDS011;55961;52.156;20.942;2023-09-19T06:40:12;18.88;;;11.55;;
68923;SDS011;55961;52.156;20.942;2023-09-19T06:42:46;19.90;;;10.68;;
68923;SDS011;55961;52.156;20.942;2023-09-19T06:45:15;18.95;;;11.45;;
68923;SDS011;55961;52.156;20.942;2023-09-19T06:47:45;17.40;;;10.83;;
68923;SDS011;55961;52.156;20.942;2023-09-19T06:50:14;17.95;;;10.27;;
68923;SDS011;55961;52.156;20.942;2023-09-19T06:52:45;15.85;;;10.75;;
68923;SDS011;55961;52.156;20.942;2023-09-19T06:55:15;15.45;;;10.63;;
68923;SDS011;55961;52.156;20.942;2023-09-19T06:57:42;16.05;;;10.63;;
68923;SDS011;55961;52.156;20.942;2023-09-19T07:00:09;23.03;;;10.60;;
68923;SDS011;55961;52.156;20.942;2023-09-19T07:02:59;15.23;;;10.65;;
68923;SDS011;55961;52.156;20.942;2023-09-19T07:05:33;20.20;;;11.05;;
68923;SDS011;55961;52.156;20.942;2023-09-19T07:08:02;19.20;;;10.82;;
68923;SDS011;55961;52.156;20.942;2023-09-19T07:10:29;15.85;;;10.18;;
68923;SDS011;55961;52.156;20.942;2023-09-19T07:12:56;13.93;;;9.47;;
68923;SDS011;55961;52.156;20.942;2023-09-19T07:15:23;17.63;;;10.73;;
68923;SDS011;55961;52.156;20.942;2023-09-19T07:17:51;16.35;;;10.70;;
68923;SDS011;55961;52.156;20.942;2023-09-19T07:20:21;16.60;;;9.70;;
68923;SDS011;55961;52.156;20.942;2023-09-19T07:22:48;15.48;;;10.50;;
68923;SDS011;55961;52.156;20.942;2023-09-19T07:25:15;16.73;;;10.67;;
68923;SDS011;55961;52.156;20.942;2023-09-19T07:27:42;15.00;;;10.85;;
68923;SDS011;55961;52.156;20.942;2023-09-19T07:30:08;16.50;;;10.57;;
68923;SDS011;55961;52.156;20.942;2023-09-19T07:32:37;17.83;;;10.40;;
68923;SDS011;55961;52.156;20.942;2023-09-19T07:35:04;16.15;;;10.35;;
68923;SDS011;55961;52.156;20.942;2023-09-19T07:37:34;16.27;;;10.13;;
68923;SDS011;55961;52.156;20.942;2023-09-19T07:40:04;15.65;;;10.43;;
68923;SDS011;55961;52.156;20.942;2023-09-19T07:42:35;17.25;;;10.80;;
68923;SDS011;55961;52.156;20.942;2023-09-19T07:45:06;14.05;;;10.80;;
68923;SDS011;55961;52.156;20.942;2023-09-19T07:47:33;17.40;;;11.52;;
68923;SDS011;55961;52.156;20.942;2023-09-19T07:50:01;19.93;;;11.87;;
68923;SDS011;55961;52.156;20.942;2023-09-19T07:52:28;20.73;;;12.75;;
68923;SDS011;55961;52.156;20.942;2023-09-19T07:54:54;18.17;;;11.90;;
68923;SDS011;55961;52.156;20.942;2023-09-19T07:57:22;18.30;;;11.85;;
68923;SDS011;55961;52.156;20.942;2023-09-19T07:59:48;16.47;;;12.10;;
68923;SDS011;55961;52.156;20.942;2023-09-19T08:02:14;23.48;;;12.60;;
68923;SDS011;55961;52.156;20.942;2023-09-19T08:04:43;17.45;;;12.60;;
68923;SDS011;55961;52.156;20.942;2023-09-19T08:07:14;15.95;;;12.50;;
68923;SDS011;55961;52.156;20.942;2023-09-19T08:09:40;21.42;;;12.57;;
68923;SDS011;55961;52.156;20.942;2023-09-19T08:12:07;17.20;;;11.53;;
68923;SDS011;55961;52.156;20.942;2023-09-19T08:14:35;15.50;;;12.05;;
68923;SDS011;55961;52.156;20.942;2023-09-19T08:17:03;17.13;;;12.23;;
68923;SDS011;55961;52.156;20.942;2023-09-19T08:19:33;18.20;;;12.88;;
68923;SDS011;55961;52.156;20.942;2023-09-19T08:21:59;18.73;;;12.38;;
68923;SDS011;55961;52.156;20.942;2023-09-19T08:24:27;23.20;;;12.63;;
68923;SDS011;55961;52.156;20.942;2023-09-19T08:26:54;16.60;;;11.30;;
68923;SDS011;55961;52.156;20.942;2023-09-19T08:29:21;16.58;;;11.18;;
68923;SDS011;55961;52.156;20.942;2023-09-19T08:31:53;18.15;;;11.68;;
68923;SDS011;55961;52.156;20.942;2023-09-19T08:34:21;16.30;;;11.00;;
68923;SDS011;55961;52.156;20.942;2023-09-19T08:36:50;16.33;;;10.63;;
68923;SDS011;55961;52.156;20.942;2023-09-19T08:39:18;16.25;;;11.10;;
68923;SDS011;55961;52.156;20.942;2023-09-19T08:41:44;15.68;;;10.95;;
68923;SDS011;55961;52.156;20.942;2023-09-19T08:44:10;15.43;;;12.02;;
68923;SDS011;55961;52.156;20.942;2023-09-19T08:46:36;17.73;;;11.30;;
68923;SDS011;55961;52.156;20.942;2023-09-19T08:49:17;15.30;;;11.83;;
68923;SDS011;55961;52.156;20.942;2023-09-19T08:51:59;19.38;;;11.90;;
68923;SDS011;55961;52.156;20.942;2023-09-19T08:54:37;16.50;;;11.82;;
68923;SDS011;55961;52.156;20.942;2023-09-19T08:57:06;16.42;;;10.85;;
68923;SDS011;55961;52.156;20.942;2023-09-19T08:59:39;15.20;;;11.30;;
68923;SDS011;55961;52.156;20.942;2023-09-19T09:02:12;16.50;;;11.17;;
68923;SDS011;55961;52.156;20.942;2023-09-19T09:04:42;15.70;;;10.15;;
68923;SDS011;55961;52.156;20.942;2023-09-19T09:07:10;14.27;;;9.85;;
68923;SDS011;55961;52.156;20.942;2023-09-19T09:09:38;14.27;;;10.70;;
68923;SDS011;55961;52.156;20.942;2023-09-19T09:12:11;15.05;;;10.52;;
68923;SDS011;55961;52.156;20.942;2023-09-19T09:14:39;15.90;;;11.07;;
68923;SDS011;55961;52.156;20.942;2023-09-19T09:17:05;17.15;;;11.10;;
68923;SDS011;55961;52.156;20.942;2023-09-19T09:19:32;16.67;;;11.02;;
68923;SDS011;55961;52.156;20.942;2023-09-19T09:22:08;14.13;;;10.02;;
68923;SDS011;55961;52.156;20.942;2023-09-19T09:24:35;18.08;;;10.80;;
68923;SDS011;55961;52.156;20.942;2023-09-19T09:27:04;16.17;;;12.07;;
68923;SDS011;55961;52.156;20.942;2023-09-19T09:32:28;20.17;;;11.43;;
68923;SDS011;55961;52.156;20.942;2023-09-19T09:34:55;22.25;;;11.75;;
68923;SDS011;55961;52.156;20.942;2023-09-19T09:37:23;24.25;;;12.25;;
68923;SDS011;55961;52.156;20.942;2023-09-19T09:40:00;23.73;;;11.17;;
68923;SDS011;55961;52.156;20.942;2023-09-19T09:42:50;21.40;;;10.27;;
68923;SDS011;55961;52.156;20.942;2023-09-19T09:45:24;18.52;;;9.60;;
68923;SDS011;55961;52.156;20.942;2023-09-19T09:47:59;18.65;;;9.98;;
68923;SDS011;55961;52.156;20.942;2023-09-19T09:50:35;18.75;;;9.60;;
68923;SDS011;55961;52.156;20.942;2023-09-19T09:53:26;14.07;;;8.53;;
68923;SDS011;55961;52.156;20.942;2023-09-19T09:55:58;16.25;;;9.57;;
68923;SDS011;55961;52.156;20.942;2023-09-19T09:58:25;14.23;;;9.63;;
68923;SDS011;55961;52.156;20.942;2023-09-19T10:01:00;15.85;;;10.23;;
68923;SDS011;55961;52.156;20.942;2023-09-19T10:03:35;18.45;;;11.93;;
68923;SDS011;55961;52.156;20.942;2023-09-19T10:06:08;20.07;;;11.80;;
68923;SDS011;55961;52.156;20.942;2023-09-19T10:09:05;20.65;;;12.15;;
68923;SDS011;55961;52.156;20.942;2023-09-19T10:12:05;17.80;;;11.57;;
68923;SDS011;55961;52.156;20.942;2023-09-19T10:14:35;16.20;;;11.02;;
68923;SDS011;55961;52.156;20.942;2023-09-19T10:17:04;15.95;;;10.00;;
68923;SDS011;55961;52.156;20.942;2023-09-19T10:19:42;17.10;;;10.33;;
68923;SDS011;55961;52.156;20.942;2023-09-19T10:22:16;14.80;;;9.73;;
68923;SDS011;55961;52.156;20.942;2023-09-19T10:24:46;14.77;;;9.05;;
68923;SDS011;55961;52.156;20.942;2023-09-19T10:27:15;14.32;;;8.82;;
68923;SDS011;55961;52.156;20.942;2023-09-19T10:29:42;14.07;;;8.88;;
68923;SDS011;55961;52.156;20.942;2023-09-19T10:32:12;13.27;;;8.40;;
68923;SDS011;55961;52.156;20.942;2023-09-19T10:34:46;11.90;;;7.55;;
68923;SDS011;55961;52.156;20.942;2023-09-19T10:37:13;12.13;;;7.45;;
68923;SDS011;55961;52.156;20.942;2023-09-19T10:39:41;12.55;;;7.90;;
68923;SDS011;55961;52.156;20.942;2023-09-19T10:42:16;13.35;;;7.53;;
68923;SDS011;55961;52.156;20.942;2023-09-19T10:44:45;11.93;;;6.60;;
68923;SDS011;55961;52.156;20.942;2023-09-19T10:47:19;10.98;;;7.38;;
68923;SDS011;55961;52.156;20.942;2023-09-19T10:49:46;15.57;;;8.35;;
68923;SDS011;55961;52.156;20.942;2023-09-19T10:52:13;12.23;;;8.23;;
68923;SDS011;55961;52.156;20.942;2023-09-19T10:54:48;10.15;;;7.35;;
68923;SDS011;55961;52.156;20.942;2023-09-19T10:57:22;10.70;;;6.53;;
68923;SDS011;55961;52.156;20.942;2023-09-19T11:00:02;11.93;;;6.78;;
68923;SDS011;55961;52.156;20.942;2023-09-19T11:05:37;11.70;;;5.90;;
68923;SDS011;55961;52.156;20.942;2023-09-19T11:08:06;12.43;;;7.03;;
68923;SDS011;55961;52.156;20.942;2023-09-19T11:13:31;9.55;;;6.68;;
68923;SDS011;55961;52.156;20.942;2023-09-19T11:26:50;11.23;;;6.72;;
68923;SDS011;55961;52.156;20.942;2023-09-19T11:29:30;10.40;;;6.40;;
68923;SDS011;55961;52.156;20.942;2023-09-19T11:31:57;11.50;;;6.50;;
68923;SDS011;55961;52.156;20.942;2023-09-19T11:39:37;9.25;;;4.68;;
68923;SDS011;55961;52.156;20.942;2023-09-19T11:48:23;9.55;;;4.97;;
68923;SDS011;55961;52.156;20.942;2023-09-19T11:50:52;8.53;;;5.23;;
68923;SDS011;55961;52.156;20.942;2023-09-19T11:53:18;8.68;;;4.30;;
68923;SDS011;55961;52.156;20.942;2023-09-19T11:55:46;10.68;;;5.30;;
68923;SDS011;55961;52.156;20.942;2023-09-19T11:58:14;8.43;;;4.55;;
68923;SDS011;55961;52.156;20.942;2023-09-19T12:00:42;9.10;;;5.28;;
68923;SDS011;55961;52.156;20.942;2023-09-19T12:03:11;8.93;;;4.30;;
68923;SDS011;55961;52.156;20.942;2023-09-19T12:05:39;8.63;;;5.13;;
68923;SDS011;55961;52.156;20.942;2023-09-19T12:08:07;8.18;;;4.65;;
68923;SDS011;55961;52.156;20.942;2023-09-19T12:10:47;9.75;;;4.88;;
68923;SDS011;55961;52.156;20.942;2023-09-19T12:13:17;9.35;;;5.53;;
68923;SDS011;55961;52.156;20.942;2023-09-19T12:15:44;8.90;;;4.80;;
68923;SDS011;55961;52.156;20.942;2023-09-19T12:18:34;7.95;;;4.50;;
68923;SDS011;55961;52.156;20.942;2023-09-19T12:21:01;9.05;;;4.85;;
68923;SDS011;55961;52.156;20.942;2023-09-19T12:23:30;9.45;;;4.80;;
68923;SDS011;55961;52.156;20.942;2023-09-19T12:25:56;9.00;;;5.30;;
68923;SDS011;55961;52.156;20.942;2023-09-19T12:28:26;12.23;;;5.28;;
68923;SDS011;55961;52.156;20.942;2023-09-19T12:30:55;7.75;;;5.05;;
68923;SDS011;55961;52.156;20.942;2023-09-19T12:33:23;11.85;;;6.05;;
68923;SDS011;55961;52.156;20.942;2023-09-19T12:35:51;9.23;;;5.43;;
68923;SDS011;55961;52.156;20.942;2023-09-19T12:38:25;8.70;;;5.50;;
68923;SDS011;55961;52.156;20.942;2023-09-19T12:40:57;9.05;;;5.45;;
68923;SDS011;55961;52.156;20.942;2023-09-19T12:43:25;9.48;;;5.75;;
68923;SDS011;55961;52.156;20.942;2023-09-19T12:45:55;12.00;;;6.00;;
68923;SDS011;55961;52.156;20.942;2023-09-19T12:48:26;9.55;;;5.65;;
68923;SDS011;55961;52.156;20.942;2023-09-19T12:53:37;8.68;;;5.72;;
68923;SDS011;55961;52.156;20.942;2023-09-19T12:56:12;9.23;;;5.40;;
68923;SDS011;55961;52.156;20.942;2023-09-19T12:58:52;10.35;;;5.63;;
68923;SDS011;55961;52.156;20.942;2023-09-19T13:01:19;10.32;;;5.68;;
68923;SDS011;55961;52.156;20.942;2023-09-19T13:04:10;10.03;;;6.00;;
68923;SDS011;55961;52.156;20.942;2023-09-19T13:06:50;9.80;;;5.38;;
68923;SDS011;55961;52.156;20.942;2023-09-19T13:09:17;10.35;;;6.22;;
68923;SDS011;55961;52.156;20.942;2023-09-19T13:11:47;8.93;;;5.70;;
68923;SDS011;55961;52.156;20.942;2023-09-19T13:14:17;11.57;;;5.43;;
68923;SDS011;55961;52.156;20.942;2023-09-19T13:16:54;10.20;;;6.07;;
68923;SDS011;55961;52.156;20.942;2023-09-19T13:19:39;10.52;;;5.65;;
68923;SDS011;55961;52.156;20.942;2023-09-19T13:25:10;11.02;;;6.25;;
68923;SDS011;55961;52.156;20.942;2023-09-19T13:27:43;11.27;;;6.40;;
68923;SDS011;55961;52.156;20.942;2023-09-19T13:30:11;13.17;;;6.67;;
68923;SDS011;55961;52.156;20.942;2023-09-19T13:32:37;11.10;;;6.85;;
68923;SDS011;55961;52.156;20.942;2023-09-19T13:35:06;15.40;;;7.32;;
68923;SDS011;55961;52.156;20.942;2023-09-19T13:37:35;11.50;;;6.93;;
68923;SDS011;55961;52.156;20.942;2023-09-19T13:40:09;13.25;;;7.57;;
68923;SDS011;55961;52.156;20.942;2023-09-19T13:42:37;10.70;;;6.80;;
68923;SDS011;55961;52.156;20.942;2023-09-19T13:45:03;13.82;;;7.07;;
68923;SDS011;55961;52.156;20.942;2023-09-19T13:47:30;13.07;;;7.10;;
68923;SDS011;55961;52.156;20.942;2023-09-19T13:49:58;11.50;;;6.97;;
68923;SDS011;55961;52.156;20.942;2023-09-19T13:52:26;12.00;;;7.10;;
68923;SDS011;55961;52.156;20.942;2023-09-19T13:54:54;11.67;;;7.43;;
68923;SDS011;55961;52.156;20.942;2023-09-19T13:57:25;13.48;;;7.80;;
68923;SDS011;55961;52.156;20.942;2023-09-19T13:59:51;11.98;;;7.80;;
68923;SDS011;55961;52.156;20.942;2023-09-19T14:02:20;12.20;;;7.55;;
68923;SDS011;55961;52.156;20.942;2023-09-19T14:04:48;13.75;;;7.93;;
68923;SDS011;55961;52.156;20.942;2023-09-19T14:07:15;11.33;;;8.23;;
68923;SDS011;55961;52.156;20.942;2023-09-19T14:09:44;15.70;;;8.45;;
68923;SDS011;55961;52.156;20.942;2023-09-19T14:12:10;10.60;;;8.05;;
68923;SDS011;55961;52.156;20.942;2023-09-19T14:14:36;13.05;;;8.70;;
68923;SDS011;55961;52.156;20.942;2023-09-19T14:17:03;12.87;;;8.50;;
68923;SDS011;55961;52.156;20.942;2023-09-19T14:19:29;13.27;;;9.13;;
68923;SDS011;55961;52.156;20.942;2023-09-19T14:21:55;14.63;;;8.88;;
68923;SDS011;55961;52.156;20.942;2023-09-19T14:24:22;11.35;;;7.50;;
68923;SDS011;55961;52.156;20.942;2023-09-19T14:26:48;12.60;;;8.13;;
68923;SDS011;55961;52.156;20.942;2023-09-19T14:29:15;11.57;;;7.50;;
68923;SDS011;55961;52.156;20.942;2023-09-19T14:31:42;10.63;;;6.85;;
68923;SDS011;55961;52.156;20.942;2023-09-19T14:34:08;10.57;;;7.25;;
68923;SDS011;55961;52.156;20.942;2023-09-19T14:36:37;13.43;;;7.20;;
68923;SDS011;55961;52.156;20.942;2023-09-19T14:39:04;8.18;;;6.40;;
68923;SDS011;55961;52.156;20.942;2023-09-19T14:41:30;8.23;;;7.00;;
68923;SDS011;55961;52.156;20.942;2023-09-19T14:43:56;11.77;;;6.93;;
68923;SDS011;55961;52.156;20.942;2023-09-19T14:46:22;9.65;;;6.18;;
68923;SDS011;55961;52.156;20.942;2023-09-19T14:48:52;9.80;;;6.72;;
68923;SDS011;55961;52.156;20.942;2023-09-19T14:51:17;9.77;;;6.10;;
68923;SDS011;55961;52.156;20.942;2023-09-19T14:53:44;7.47;;;5.63;;
68923;SDS011;55961;52.156;20.942;2023-09-19T14:56:12;9.95;;;8.02;;
68923;SDS011;55961;52.156;20.942;2023-09-19T14:58:41;9.15;;;6.07;;
68923;SDS011;55961;52.156;20.942;2023-09-19T15:01:10;7.97;;;5.80;;
68923;SDS011;55961;52.156;20.942;2023-09-19T15:03:39;12.23;;;7.03;;
68923;SDS011;55961;52.156;20.942;2023-09-19T15:06:07;11.18;;;6.85;;
68923;SDS011;55961;52.156;20.942;2023-09-19T15:08:35;11.07;;;6.50;;
68923;SDS011;55961;52.156;20.942;2023-09-19T15:11:03;10.75;;;6.40;;
68923;SDS011;55961;52.156;20.942;2023-09-19T15:13:31;10.77;;;6.20;;
68923;SDS011;55961;52.156;20.942;2023-09-19T15:16:00;10.47;;;6.00;;
68923;SDS011;55961;52.156;20.942;2023-09-19T15:18:37;11.52;;;6.20;;